Airfield :
LOGIN :

Register | Disclaimer

   EN    FR    IT 

 










Legend :    VFR   Marginal VFR   IFR   Intensive IFR   Very Intensive IFR
Visi :
Ceiling :
>= 8 km
>= 3000ft
5 to 8 km
1000 to 3000 ft
1500m to 5 km
500 to 1000 ft
800 to 1500m
200 to 500 ft
< 800m
< 200 ft
Symbols :   Thunderstorms  Fog  Heavy snow  Heavy precipitations  Wind > 20 kt
SIGMETs :     Misc.  Thunderstorms  Icing  Turbulence  Mountain Waves  Volcanic Ashes







- Airport Elevation : 106 ft
- IATA code : NRN


EDLV - Weeze

CURRENT METAR :
  • 200820Z 19009KT 160V220 9999 SCT020 15/14 Q1007

EXPIRED METARs :
  • 200750Z 20010KT 160V230 9999 SCT020 15/13 Q1007
  • 200720Z 21009KT 170V230 9999 BKN030 15/13 Q1007
  • 200650Z 16009KT 130V190 9999 BKN030 15/13 Q1006
  • 200620Z 14009KT CAVOK 15/13 Q1005
  • 200550Z 14009KT CAVOK 15/13 Q1006

TAF TAF EDLV
Valid from the 20 at 06:00 until the 21 at 06:00 UTC


200500Z 2006/2106 15008KT 9999 BKN035
TEMPO 2006/2011 RA
BECMG 2008/2011 21010KT
TEMPO 2010/2015 22015G25KT
BECMG 2103/2106 15008KT
No reported NOTAMs for that airfield.



MET'MAP, your aeronautical weather chart ! - Copyright ORBIFLY December 2007 - Disclaimer

ORBIFLY MET'MAP TEAM :

Programming & Development : Alexandra Zaïnal
Concept & Development : Baudouin d'Aumeries
Co-Development & Prog : Marc-Olivier Méhu
Technical & hardware support : Manuel Goepfert

Contact : metmap@orbifly.com




SOURCES & CREDITS :

   NOAA